createdAt,value
2023-02-02T00:00:07.541Z,97.22
2023-02-02T00:00:17.537Z,97.22
2023-02-02T00:00:27.554Z,97.22
2023-02-02T00:00:37.535Z,97.11
2023-02-02T00:00:47.531Z,97.11
2023-02-02T00:00:57.537Z,97.22
2023-02-02T00:01:07.547Z,97.22
2023-02-02T00:01:17.535Z,97.22
2023-02-02T00:01:27.575Z,97.22
2023-02-02T00:01:37.559Z,97.22
2023-02-02T00:01:47.541Z,97.22
2023-02-02T00:01:57.542Z,97.22
2023-02-02T00:02:07.542Z,97.11
2023-02-02T00:02:17.544Z,97.01
2023-02-02T00:02:27.569Z,96.80
2023-02-02T00:02:37.621Z,96.59
2023-02-02T00:02:47.584Z,96.49
2023-02-02T00:02:57.561Z,96.59
2023-02-02T00:03:07.635Z,96.59
2023-02-02T00:03:17.545Z,96.70
2023-02-02T00:03:27.559Z,96.80
2023-02-02T00:03:37.572Z,96.91
2023-02-02T00:03:47.592Z,96.80
2023-02-02T00:03:57.580Z,96.38
2023-02-02T00:04:07.577Z,96.17
2023-02-02T00:04:17.560Z,95.97
2023-02-02T00:04:27.556Z,95.76
2023-02-02T00:04:37.566Z,95.65
2023-02-02T00:04:47.557Z,95.55
2023-02-02T00:04:57.555Z,95.65
2023-02-02T00:05:07.568Z,95.76
2023-02-02T00:05:17.556Z,95.65
2023-02-02T00:05:27.568Z,95.65
2023-02-02T00:05:37.559Z,95.76
2023-02-02T00:05:47.558Z,95.76
2023-02-02T00:05:57.561Z,95.76
2023-02-02T00:06:07.562Z,95.76
2023-02-02T00:06:17.561Z,95.76
2023-02-02T00:06:27.574Z,95.76
2023-02-02T00:06:37.571Z,95.65
2023-02-02T00:06:47.569Z,95.65
2023-02-02T00:06:57.574Z,95.65
2023-02-02T00:07:07.579Z,95.65
2023-02-02T00:07:17.567Z,95.76
2023-02-02T00:07:27.567Z,95.97
2023-02-02T00:07:37.570Z,96.17
2023-02-02T00:07:47.565Z,96.17
2023-02-02T00:07:57.570Z,96.17
2023-02-02T00:08:07.573Z,95.97
2023-02-02T00:08:17.578Z,95.97
2023-02-02T00:08:27.573Z,95.97
2023-02-02T00:08:37.572Z,95.97
2023-02-02T00:08:47.573Z,96.07
2023-02-02T00:08:57.575Z,96.07
2023-02-02T00:09:07.575Z,95.97
2023-02-02T00:09:17.588Z,95.97
2023-02-02T00:09:27.580Z,96.07
2023-02-02T00:09:37.582Z,96.07
2023-02-02T00:09:47.584Z,96.07
2023-02-02T00:09:57.585Z,95.97
2023-02-02T00:10:07.577Z,95.76
2023-02-02T00:10:17.578Z,95.65
2023-02-02T00:10:27.585Z,95.44
2023-02-02T00:10:37.588Z,95.23
2023-02-02T00:10:47.585Z,95.13
2023-02-02T00:10:57.583Z,95.13
2023-02-02T00:11:07.592Z,95.03
2023-02-02T00:11:17.593Z,95.13
2023-02-02T00:11:27.610Z,95.23
2023-02-02T00:11:37.589Z,95.44
2023-02-02T00:11:47.590Z,95.44
2023-02-02T00:11:57.591Z,95.34
2023-02-02T00:12:07.598Z,95.23
2023-02-02T00:12:17.597Z,95.13
2023-02-02T00:12:27.597Z,95.13
2023-02-02T00:12:37.599Z,95.23
2023-02-02T00:12:47.596Z,95.23
2023-02-02T00:12:57.599Z,95.23
2023-02-02T00:13:07.600Z,95.23
2023-02-02T00:13:17.623Z,95.13
2023-02-02T00:13:27.600Z,95.03
2023-02-02T00:13:37.632Z,94.92
2023-02-02T00:13:47.599Z,94.92
2023-02-02T00:13:57.608Z,94.92
2023-02-02T00:14:07.631Z,94.82
2023-02-02T00:14:17.601Z,94.82
2023-02-02T00:14:27.613Z,94.82
2023-02-02T00:14:37.602Z,94.46
2023-02-02T00:14:47.607Z,94.50
2023-02-02T00:14:57.607Z,94.71
2023-02-02T00:15:07.603Z,94.82
2023-02-02T00:15:17.606Z,94.78
2023-02-02T00:15:27.609Z,94.82
2023-02-02T00:15:37.606Z,94.92
2023-02-02T00:15:47.611Z,94.61
2023-02-02T00:15:57.651Z,94.29
2023-02-02T00:16:07.640Z,94.19
2023-02-02T00:16:17.649Z,94.09
2023-02-02T00:16:27.697Z,93.84
2023-02-02T00:16:37.623Z,93.73
2023-02-02T00:16:47.616Z,93.84
2023-02-02T00:16:57.621Z,94.04
2023-02-02T00:17:07.622Z,94.04
2023-02-02T00:17:17.626Z,94.40
2023-02-02T00:17:27.622Z,94.71
2023-02-02T00:17:37.625Z,94.82
2023-02-02T00:17:47.625Z,94.82
2023-02-02T00:17:57.635Z,94.92
2023-02-02T00:18:07.619Z,95.03
2023-02-02T00:18:17.626Z,95.13
2023-02-02T00:18:27.625Z,95.34
2023-02-02T00:18:37.636Z,95.23
2023-02-02T00:18:47.632Z,95.13
2023-02-02T00:18:57.623Z,95.23
2023-02-02T00:19:07.622Z,95.23
2023-02-02T00:19:17.640Z,95.23
2023-02-02T00:19:27.634Z,95.44
2023-02-02T00:19:37.636Z,95.44
2023-02-02T00:19:47.628Z,95.44
2023-02-02T00:19:57.644Z,95.55
2023-02-02T00:20:07.633Z,95.55
2023-02-02T00:20:17.642Z,95.65
2023-02-02T00:20:27.651Z,95.65
2023-02-02T00:20:37.640Z,95.65
2023-02-02T00:20:47.651Z,95.86
2023-02-02T00:20:57.637Z,95.86
2023-02-02T00:21:07.634Z,95.86
2023-02-02T00:21:17.637Z,95.76
2023-02-02T00:21:27.646Z,95.65
2023-02-02T00:21:37.643Z,95.65
2023-02-02T00:21:47.642Z,95.76
2023-02-02T00:21:57.644Z,95.86
2023-02-02T00:22:07.645Z,95.97
2023-02-02T00:22:17.645Z,96.07
2023-02-02T00:22:27.643Z,96.07
2023-02-02T00:22:37.639Z,95.97
2023-02-02T00:22:47.647Z,95.86
2023-02-02T00:22:57.642Z,95.97
2023-02-02T00:23:07.648Z,95.97
2023-02-02T00:23:17.651Z,96.07
2023-02-02T00:23:27.646Z,95.86
2023-02-02T00:23:37.662Z,95.76
2023-02-02T00:23:47.649Z,95.65
2023-02-02T00:23:57.650Z,95.65
2023-02-02T00:24:07.670Z,95.55
2023-02-02T00:24:17.647Z,95.44
2023-02-02T00:24:27.658Z,95.44
2023-02-02T00:24:37.655Z,95.34
2023-02-02T00:24:47.651Z,95.34
2023-02-02T00:24:57.651Z,95.44
2023-02-02T00:25:07.671Z,95.55
2023-02-02T00:25:17.653Z,95.34
2023-02-02T00:25:27.672Z,95.44
2023-02-02T00:25:37.659Z,95.23
2023-02-02T00:25:47.657Z,95.23
2023-02-02T00:25:57.652Z,95.23
2023-02-02T00:26:07.654Z,94.92
2023-02-02T00:26:17.680Z,94.92
2023-02-02T00:26:27.693Z,95.13
2023-02-02T00:26:37.681Z,95.23
2023-02-02T00:26:47.689Z,95.23
2023-02-02T00:26:57.670Z,95.44
2023-02-02T00:27:07.666Z,95.34
2023-02-02T00:27:17.661Z,95.23
2023-02-02T00:27:27.664Z,95.13
2023-02-02T00:27:37.664Z,95.34
2023-02-02T00:27:47.663Z,95.23
2023-02-02T00:27:57.682Z,95.23
2023-02-02T00:28:07.662Z,95.23
2023-02-02T00:28:17.691Z,95.23
2023-02-02T00:28:27.671Z,95.23
2023-02-02T00:28:37.669Z,95.34
2023-02-02T00:28:47.704Z,95.34
2023-02-02T00:28:57.669Z,95.34
2023-02-02T00:29:07.682Z,95.55
2023-02-02T00:29:17.667Z,95.65
2023-02-02T00:29:27.673Z,95.76
2023-02-02T00:29:37.687Z,95.86
2023-02-02T00:29:47.676Z,96.07
2023-02-02T00:29:57.679Z,95.97
2023-02-02T00:30:07.679Z,95.97
2023-02-02T00:30:17.669Z,96.07
2023-02-02T00:30:27.717Z,96.17
2023-02-02T00:30:37.718Z,96.07
2023-02-02T00:30:47.682Z,96.17
2023-02-02T00:30:57.671Z,96.28
2023-02-02T00:31:07.718Z,96.38
2023-02-02T00:31:17.783Z,96.28
2023-02-02T00:31:27.691Z,96.07
2023-02-02T00:31:37.772Z,95.97
2023-02-02T00:31:47.738Z,95.86
2023-02-02T00:31:57.684Z,95.76
2023-02-02T00:32:07.686Z,95.55
2023-02-02T00:32:17.705Z,95.44
2023-02-02T00:32:27.678Z,95.55
2023-02-02T00:32:37.683Z,95.55
2023-02-02T00:32:47.685Z,95.55
2023-02-02T00:32:57.692Z,95.76
2023-02-02T00:33:07.682Z,95.76
2023-02-02T00:33:17.683Z,95.86
2023-02-02T00:33:27.686Z,95.86
2023-02-02T00:33:37.684Z,95.86
2023-02-02T00:33:47.689Z,95.76
2023-02-02T00:33:57.690Z,95.65
2023-02-02T00:34:07.689Z,95.55
2023-02-02T00:34:17.691Z,95.65
2023-02-02T00:34:27.690Z,95.76
2023-02-02T00:34:37.691Z,95.76
2023-02-02T00:34:47.688Z,95.76
2023-02-02T00:34:57.688Z,95.76
2023-02-02T00:35:07.691Z,95.76
2023-02-02T00:35:17.689Z,95.86
2023-02-02T00:35:27.730Z,95.76
2023-02-02T00:35:37.693Z,95.76
2023-02-02T00:35:47.696Z,95.76
2023-02-02T00:35:57.697Z,95.65
2023-02-02T00:36:07.697Z,95.65
2023-02-02T00:36:17.691Z,95.86
2023-02-02T00:36:27.704Z,96.07
2023-02-02T00:36:37.700Z,96.07
2023-02-02T00:36:47.703Z,95.97
2023-02-02T00:36:57.697Z,95.97
2023-02-02T00:37:07.697Z,95.97
2023-02-02T00:37:17.698Z,95.86
2023-02-02T00:37:27.698Z,95.97
2023-02-02T00:37:37.707Z,95.86
2023-02-02T00:37:47.705Z,95.76
2023-02-02T00:37:57.702Z,95.76
2023-02-02T00:38:07.701Z,95.76
2023-02-02T00:38:17.723Z,95.86
2023-02-02T00:38:27.722Z,95.86
2023-02-02T00:38:37.706Z,95.86
2023-02-02T00:38:47.705Z,95.97
2023-02-02T00:38:57.713Z,95.97
2023-02-02T00:39:07.723Z,95.86
2023-02-02T00:39:17.709Z,95.76
2023-02-02T00:39:27.722Z,95.65
2023-02-02T00:39:37.710Z,95.55
2023-02-02T00:39:47.721Z,95.55
2023-02-02T00:39:57.717Z,95.65
2023-02-02T00:40:07.720Z,95.55
2023-02-02T00:40:17.724Z,95.65
2023-02-02T00:40:27.728Z,95.55
2023-02-02T00:40:37.725Z,95.65
2023-02-02T00:40:47.723Z,95.76
2023-02-02T00:40:57.716Z,95.86
2023-02-02T00:41:07.722Z,95.97
2023-02-02T00:41:17.717Z,96.07
2023-02-02T00:41:27.718Z,96.28
2023-02-02T00:41:37.722Z,96.17
2023-02-02T00:41:47.722Z,96.17
2023-02-02T00:41:57.727Z,96.17
2023-02-02T00:42:07.745Z,96.17
2023-02-02T00:42:17.732Z,96.17
2023-02-02T00:42:27.725Z,96.17
2023-02-02T00:42:37.727Z,96.07
2023-02-02T00:42:47.730Z,95.97
2023-02-02T00:42:57.729Z,95.97
2023-02-02T00:43:07.731Z,95.86
2023-02-02T00:43:17.727Z,95.76
2023-02-02T00:43:27.730Z,95.86
2023-02-02T00:43:37.736Z,95.97
2023-02-02T00:43:47.734Z,95.97
2023-02-02T00:43:57.728Z,95.97
2023-02-02T00:44:07.741Z,95.97
2023-02-02T00:44:17.729Z,95.97
2023-02-02T00:44:27.735Z,96.07
2023-02-02T00:44:37.742Z,96.17
2023-02-02T00:44:47.740Z,96.28
2023-02-02T00:44:57.731Z,96.28
2023-02-02T00:45:07.740Z,96.17
2023-02-02T00:45:17.738Z,96.07
2023-02-02T00:45:27.822Z,95.97
2023-02-02T00:45:37.764Z,96.07
2023-02-02T00:45:47.762Z,96.07
2023-02-02T00:45:57.786Z,95.97
2023-02-02T00:46:07.759Z,95.86
2023-02-02T00:46:17.736Z,95.76
2023-02-02T00:46:27.742Z,95.97
2023-02-02T00:46:37.739Z,95.97
2023-02-02T00:46:47.739Z,95.97
2023-02-02T00:46:57.746Z,95.97
2023-02-02T00:47:07.741Z,95.97
2023-02-02T00:47:17.767Z,96.07
2023-02-02T00:47:27.753Z,95.97
2023-02-02T00:47:37.749Z,95.86
2023-02-02T00:47:47.747Z,95.76
2023-02-02T00:47:57.749Z,95.65
2023-02-02T00:48:07.747Z,95.55
2023-02-02T00:48:17.748Z,95.34
2023-02-02T00:48:27.756Z,95.44
2023-02-02T00:48:37.751Z,95.55
2023-02-02T00:48:47.751Z,95.76
2023-02-02T00:48:57.753Z,95.76
2023-02-02T00:49:07.759Z,95.86
2023-02-02T00:49:17.770Z,95.86
2023-02-02T00:49:27.762Z,95.86
2023-02-02T00:49:37.759Z,95.86
2023-02-02T00:49:47.755Z,95.86
2023-02-02T00:49:57.759Z,95.86
2023-02-02T00:50:07.759Z,95.86
2023-02-02T00:50:17.766Z,96.07
2023-02-02T00:50:27.767Z,96.17
2023-02-02T00:50:37.770Z,96.17
2023-02-02T00:50:47.757Z,96.17
2023-02-02T00:50:57.761Z,96.17
2023-02-02T00:51:07.768Z,96.07
2023-02-02T00:51:17.774Z,96.07
2023-02-02T00:51:27.773Z,95.97
2023-02-02T00:51:37.780Z,95.86
2023-02-02T00:51:47.764Z,95.86
2023-02-02T00:51:57.764Z,95.97
2023-02-02T00:52:07.767Z,95.97
2023-02-02T00:52:17.774Z,95.86
2023-02-02T00:52:27.769Z,95.86
2023-02-02T00:52:37.776Z,95.86
2023-02-02T00:52:47.775Z,95.86
2023-02-02T00:52:57.769Z,95.86
2023-02-02T00:53:07.773Z,95.86
2023-02-02T00:53:17.774Z,95.97
2023-02-02T00:53:27.777Z,96.07
2023-02-02T00:53:37.779Z,96.07
2023-02-02T00:53:47.773Z,95.97
2023-02-02T00:53:57.776Z,95.97
2023-02-02T00:54:07.781Z,96.07
2023-02-02T00:54:17.774Z,95.97
2023-02-02T00:54:27.799Z,95.86
2023-02-02T00:54:37.783Z,95.76
2023-02-02T00:54:47.783Z,95.86
2023-02-02T00:54:57.778Z,95.97
2023-02-02T00:55:07.779Z,96.07
2023-02-02T00:55:17.796Z,95.97
2023-02-02T00:55:27.799Z,95.97
2023-02-02T00:55:37.788Z,95.97
2023-02-02T00:55:47.788Z,96.07
2023-02-02T00:55:57.783Z,96.28
2023-02-02T00:56:07.791Z,96.38
2023-02-02T00:56:17.783Z,96.49
2023-02-02T00:56:27.792Z,96.49
2023-02-02T00:56:37.804Z,96.28
2023-02-02T00:56:47.785Z,96.07
2023-02-02T00:56:57.791Z,96.07
2023-02-02T00:57:07.796Z,96.17
2023-02-02T00:57:17.794Z,96.17
2023-02-02T00:57:27.793Z,96.17
2023-02-02T00:57:37.797Z,96.28
2023-02-02T00:57:47.792Z,96.28
2023-02-02T00:57:57.790Z,96.38
2023-02-02T00:58:07.794Z,96.38
2023-02-02T00:58:17.799Z,96.28
2023-02-02T00:58:27.801Z,96.28
2023-02-02T00:58:37.799Z,96.28
2023-02-02T00:58:47.800Z,96.17
2023-02-02T00:58:57.795Z,95.97
2023-02-02T00:59:07.800Z,95.76
2023-02-02T00:59:17.808Z,95.55
2023-02-02T00:59:27.795Z,95.65
2023-02-02T00:59:37.802Z,95.55
2023-02-02T00:59:47.797Z,95.44
2023-02-02T00:59:57.809Z,95.44
2023-02-02T01:00:07.800Z,95.55
2023-02-02T01:00:17.806Z,95.55
2023-02-02T01:00:27.823Z,95.55
2023-02-02T01:00:37.808Z,95.44
2023-02-02T01:00:47.853Z,95.55
2023-02-02T01:00:57.818Z,95.65
2023-02-02T01:01:07.833Z,95.76
2023-02-02T01:01:17.847Z,95.86
2023-02-02T01:01:27.805Z,95.76
2023-02-02T01:01:37.822Z,95.76
2023-02-02T01:01:47.868Z,95.76
2023-02-02T01:01:57.835Z,95.76
2023-02-02T01:02:07.836Z,95.86
2023-02-02T01:02:17.874Z,95.86
2023-02-02T01:02:27.899Z,95.86
2023-02-02T01:02:37.811Z,95.86
2023-02-02T01:02:47.812Z,95.86
2023-02-02T01:02:57.822Z,95.86
2023-02-02T01:03:07.815Z,95.97
2023-02-02T01:03:17.819Z,96.07
2023-02-02T01:03:27.818Z,96.28
2023-02-02T01:03:37.839Z,96.38
2023-02-02T01:03:47.832Z,96.38
2023-02-02T01:03:57.825Z,96.28
2023-02-02T01:04:07.830Z,96.28
2023-02-02T01:04:17.827Z,96.28
2023-02-02T01:04:27.828Z,96.28
2023-02-02T01:04:37.821Z,96.17
2023-02-02T01:04:47.822Z,96.07
2023-02-02T01:04:57.831Z,95.97
2023-02-02T01:05:07.819Z,95.86
2023-02-02T01:05:17.827Z,95.76
2023-02-02T01:05:27.838Z,95.86
2023-02-02T01:05:37.827Z,95.97
2023-02-02T01:05:47.824Z,95.97
2023-02-02T01:05:57.834Z,96.07
2023-02-02T01:06:07.847Z,95.97
2023-02-02T01:06:17.829Z,95.97
2023-02-02T01:06:27.835Z,96.07
2023-02-02T01:06:37.834Z,95.97
2023-02-02T01:06:47.833Z,95.97
2023-02-02T01:06:57.831Z,96.07
2023-02-02T01:07:07.832Z,96.07
2023-02-02T01:07:17.835Z,96.17
2023-02-02T01:07:27.838Z,96.17
2023-02-02T01:07:37.846Z,96.17
2023-02-02T01:07:47.845Z,96.07
2023-02-02T01:07:57.835Z,96.07
2023-02-02T01:08:07.843Z,96.07
2023-02-02T01:08:17.841Z,95.97
2023-02-02T01:08:27.845Z,95.86
2023-02-02T01:08:37.849Z,95.86
2023-02-02T01:08:47.846Z,95.97
2023-02-02T01:08:57.847Z,95.97
2023-02-02T01:09:07.841Z,95.97
2023-02-02T01:09:17.844Z,95.97
2023-02-02T01:09:27.843Z,95.97
2023-02-02T01:09:37.845Z,95.86
2023-02-02T01:09:47.850Z,95.86
2023-02-02T01:09:57.847Z,95.86
2023-02-02T01:10:07.852Z,95.76
2023-02-02T01:10:17.856Z,95.76
2023-02-02T01:10:27.861Z,95.76
2023-02-02T01:10:37.854Z,95.86
2023-02-02T01:10:47.847Z,95.97
2023-02-02T01:10:57.851Z,95.97
2023-02-02T01:11:07.851Z,95.86
2023-02-02T01:11:17.854Z,95.86
2023-02-02T01:11:27.881Z,95.86
2023-02-02T01:11:37.861Z,95.76
2023-02-02T01:11:47.853Z,95.76
2023-02-02T01:11:57.872Z,95.76
2023-02-02T01:12:07.861Z,95.65
2023-02-02T01:12:17.860Z,95.65
2023-02-02T01:12:27.858Z,95.76
2023-02-02T01:12:37.862Z,95.86
2023-02-02T01:12:47.862Z,95.86
2023-02-02T01:12:57.861Z,95.86
2023-02-02T01:13:07.867Z,95.76
2023-02-02T01:13:17.880Z,95.76
2023-02-02T01:13:27.866Z,95.86
2023-02-02T01:13:37.869Z,95.86
2023-02-02T01:13:47.884Z,95.97
2023-02-02T01:13:57.882Z,96.07
2023-02-02T01:14:07.867Z,96.17
2023-02-02T01:14:17.877Z,96.17
2023-02-02T01:14:27.878Z,96.17
2023-02-02T01:14:37.870Z,96.07
2023-02-02T01:14:47.884Z,96.07
2023-02-02T01:14:57.870Z,96.17
2023-02-02T01:15:07.883Z,96.17
2023-02-02T01:15:17.885Z,96.17
2023-02-02T01:15:27.894Z,96.17
2023-02-02T01:15:37.886Z,96.17
2023-02-02T01:15:47.873Z,96.17
2023-02-02T01:15:57.888Z,96.17
2023-02-02T01:16:07.980Z,96.28
2023-02-02T01:16:17.919Z,96.28
2023-02-02T01:16:27.927Z,96.28
2023-02-02T01:16:37.928Z,96.28
2023-02-02T01:16:47.925Z,96.28
2023-02-02T01:16:57.883Z,96.28
2023-02-02T01:17:07.890Z,96.38
2023-02-02T01:17:17.885Z,96.38
2023-02-02T01:17:27.893Z,96.17
2023-02-02T01:17:37.887Z,96.17
2023-02-02T01:17:47.885Z,96.17
2023-02-02T01:17:57.904Z,96.07
2023-02-02T01:18:07.888Z,96.07
2023-02-02T01:18:17.889Z,95.97
2023-02-02T01:18:27.901Z,95.97
2023-02-02T01:18:37.889Z,95.76
2023-02-02T01:18:47.897Z,95.23
2023-02-02T01:18:57.901Z,95.03
2023-02-02T01:19:07.892Z,94.82
2023-02-02T01:19:17.898Z,94.61
2023-02-02T01:19:27.894Z,94.61
2023-02-02T01:19:37.891Z,94.71
2023-02-02T01:19:47.891Z,94.71
2023-02-02T01:19:57.900Z,94.61
2023-02-02T01:20:07.921Z,94.61
2023-02-02T01:20:17.912Z,94.61
2023-02-02T01:20:27.943Z,94.61
2023-02-02T01:20:37.911Z,94.61
2023-02-02T01:20:47.907Z,94.61
2023-02-02T01:20:57.910Z,94.61
2023-02-02T01:21:07.908Z,94.71
2023-02-02T01:21:17.908Z,94.71
2023-02-02T01:21:27.913Z,94.92
2023-02-02T01:21:37.913Z,95.13
2023-02-02T01:21:47.918Z,95.34
2023-02-02T01:21:57.914Z,95.44
2023-02-02T01:22:07.920Z,95.44
2023-02-02T01:22:17.917Z,95.44
2023-02-02T01:22:27.925Z,95.44
2023-02-02T01:22:37.921Z,95.65
2023-02-02T01:22:47.917Z,95.76
2023-02-02T01:22:57.922Z,95.86
2023-02-02T01:23:07.918Z,95.86
2023-02-02T01:23:17.926Z,95.86
2023-02-02T01:23:27.921Z,95.76
2023-02-02T01:23:37.918Z,95.76
2023-02-02T01:23:47.920Z,95.76
2023-02-02T01:23:57.927Z,95.76
2023-02-02T01:24:07.967Z,95.76
2023-02-02T01:24:17.927Z,95.76
2023-02-02T01:24:27.929Z,95.65
2023-02-02T01:24:37.929Z,95.76
2023-02-02T01:24:47.929Z,95.76
2023-02-02T01:24:57.929Z,95.65
2023-02-02T01:25:07.936Z,95.55
2023-02-02T01:25:17.929Z,95.55
2023-02-02T01:25:27.933Z,95.65
2023-02-02T01:25:37.935Z,95.76
2023-02-02T01:25:47.934Z,95.76
2023-02-02T01:25:57.932Z,95.76
2023-02-02T01:26:07.938Z,95.55
2023-02-02T01:26:17.973Z,95.55
2023-02-02T01:26:27.982Z,95.65
2023-02-02T01:26:37.964Z,95.65
2023-02-02T01:26:47.973Z,95.65
2023-02-02T01:26:57.943Z,95.65
2023-02-02T01:27:07.936Z,95.76
2023-02-02T01:27:17.942Z,95.76
2023-02-02T01:27:27.935Z,95.65
2023-02-02T01:27:37.941Z,95.76
2023-02-02T01:27:47.940Z,95.76
2023-02-02T01:27:57.938Z,95.97
2023-02-02T01:28:07.937Z,95.97
2023-02-02T01:28:17.940Z,96.07
2023-02-02T01:28:27.953Z,96.17
2023-02-02T01:28:37.958Z,96.28
2023-02-02T01:28:47.957Z,96.28
2023-02-02T01:28:57.947Z,96.38
2023-02-02T01:29:07.958Z,96.38
2023-02-02T01:29:17.955Z,96.28
2023-02-02T01:29:27.964Z,96.28
2023-02-02T01:29:37.951Z,96.28
2023-02-02T01:29:47.947Z,96.28
2023-02-02T01:29:57.954Z,96.38
2023-02-02T01:30:07.957Z,96.49
2023-02-02T01:30:17.951Z,96.49
2023-02-02T01:30:27.951Z,96.49
2023-02-02T01:30:38.053Z,96.28
2023-02-02T01:30:48.015Z,96.28
2023-02-02T01:30:58.026Z,96.28
2023-02-02T01:31:07.975Z,96.28
2023-02-02T01:31:18.062Z,96.28
2023-02-02T01:31:27.976Z,96.38
2023-02-02T01:31:38.025Z,96.38
2023-02-02T01:31:48.002Z,96.49
2023-02-02T01:31:57.999Z,96.59
2023-02-02T01:32:07.956Z,96.70
2023-02-02T01:32:17.962Z,96.80
2023-02-02T01:32:27.955Z,96.80
2023-02-02T01:32:37.956Z,96.70
2023-02-02T01:32:47.964Z,96.59
2023-02-02T01:32:57.966Z,96.49
2023-02-02T01:33:07.968Z,96.59
2023-02-02T01:33:17.972Z,96.49
2023-02-02T01:33:27.959Z,96.49
2023-02-02T01:33:37.974Z,96.49
2023-02-02T01:33:47.967Z,96.49
2023-02-02T01:33:57.959Z,96.59
2023-02-02T01:34:07.962Z,96.59
2023-02-02T01:34:17.971Z,96.49
2023-02-02T01:34:27.972Z,96.59
2023-02-02T01:34:37.966Z,96.59
2023-02-02T01:34:47.968Z,96.59
2023-02-02T01:34:58.004Z,96.59
2023-02-02T01:35:07.966Z,96.49
2023-02-02T01:35:17.985Z,96.49
2023-02-02T01:35:27.970Z,96.49
2023-02-02T01:35:37.986Z,96.49
2023-02-02T01:35:47.957Z,96.38
2023-02-02T01:35:57.970Z,96.28
2023-02-02T01:36:07.982Z,96.17
2023-02-02T01:36:17.969Z,96.17
2023-02-02T01:36:27.974Z,96.17
2023-02-02T01:36:37.977Z,96.28
2023-02-02T01:36:47.990Z,96.17
2023-02-02T01:36:57.980Z,96.07
2023-02-02T01:37:07.982Z,95.97
2023-02-02T01:37:17.981Z,95.76
2023-02-02T01:37:27.983Z,95.76
2023-02-02T01:37:37.979Z,95.86
2023-02-02T01:37:47.986Z,95.86
2023-02-02T01:37:57.991Z,95.65
2023-02-02T01:38:07.982Z,95.34
2023-02-02T01:38:17.988Z,95.34
2023-02-02T01:38:27.985Z,95.23
2023-02-02T01:38:38.024Z,95.13
2023-02-02T01:38:47.999Z,95.13
2023-02-02T01:38:57.988Z,95.03
2023-02-02T01:39:07.995Z,95.13
2023-02-02T01:39:17.987Z,95.13
2023-02-02T01:39:27.993Z,95.03
2023-02-02T01:39:37.987Z,95.13
2023-02-02T01:39:47.999Z,95.03
2023-02-02T01:39:57.992Z,94.82
2023-02-02T01:40:07.993Z,94.71
2023-02-02T01:40:17.995Z,94.82
2023-02-02T01:40:27.989Z,95.03
2023-02-02T01:40:38.005Z,95.03
2023-02-02T01:40:47.991Z,95.13
2023-02-02T01:40:57.997Z,95.23
2023-02-02T01:41:08.002Z,95.44
2023-02-02T01:41:17.999Z,95.55
2023-02-02T01:41:28.001Z,95.44
2023-02-02T01:41:37.998Z,95.44
2023-02-02T01:41:48.006Z,95.55
2023-02-02T01:41:57.999Z,95.55
2023-02-02T01:42:08.001Z,95.55
2023-02-02T01:42:18.006Z,95.76
2023-02-02T01:42:28.006Z,95.97
2023-02-02T01:42:38.008Z,95.97
2023-02-02T01:42:48.017Z,95.86
2023-02-02T01:42:58.012Z,95.86
2023-02-02T01:43:08.019Z,95.86
2023-02-02T01:43:18.015Z,95.97
2023-02-02T01:43:28.018Z,95.86
2023-02-02T01:43:38.018Z,95.86
2023-02-02T01:43:48.012Z,96.07
2023-02-02T01:43:58.021Z,96.28
2023-02-02T01:44:08.015Z,96.28
2023-02-02T01:44:18.016Z,96.28
2023-02-02T01:44:28.015Z,96.38
2023-02-02T01:44:38.032Z,96.49
2023-02-02T01:44:48.024Z,96.49
2023-02-02T01:44:58.015Z,96.59
2023-02-02T01:45:08.024Z,96.59
2023-02-02T01:45:18.022Z,96.59
2023-02-02T01:45:28.017Z,96.49
2023-02-02T01:45:38.037Z,96.38
2023-02-02T01:45:48.051Z,96.49
2023-02-02T01:45:58.085Z,96.49
2023-02-02T01:46:08.067Z,96.49
2023-02-02T01:46:18.022Z,96.59
2023-02-02T01:46:28.027Z,96.59
2023-02-02T01:46:38.025Z,96.49
2023-02-02T01:46:48.033Z,96.49
2023-02-02T01:46:58.022Z,96.49
2023-02-02T01:47:08.023Z,96.49
2023-02-02T01:47:18.028Z,96.59
2023-02-02T01:47:28.022Z,96.70
2023-02-02T01:47:38.028Z,96.70
2023-02-02T01:47:48.028Z,96.49
2023-02-02T01:47:58.051Z,96.49
2023-02-02T01:48:08.023Z,96.49
2023-02-02T01:48:18.039Z,96.59
2023-02-02T01:48:28.030Z,96.70
2023-02-02T01:48:38.044Z,96.80
2023-02-02T01:48:48.027Z,96.91
2023-02-02T01:48:58.038Z,96.80
2023-02-02T01:49:08.033Z,96.70
2023-02-02T01:49:18.035Z,96.80
2023-02-02T01:49:28.071Z,96.80
2023-02-02T01:49:38.037Z,96.91
2023-02-02T01:49:48.048Z,96.91
2023-02-02T01:49:58.037Z,96.80
2023-02-02T01:50:08.035Z,96.70
2023-02-02T01:50:18.055Z,96.59
2023-02-02T01:50:28.037Z,96.49
2023-02-02T01:50:38.045Z,96.38
2023-02-02T01:50:48.048Z,96.28
2023-02-02T01:50:58.050Z,96.17
2023-02-02T01:51:08.048Z,96.17
2023-02-02T01:51:18.047Z,96.17
2023-02-02T01:51:28.041Z,96.28
2023-02-02T01:51:38.043Z,96.28
2023-02-02T01:51:48.049Z,96.28
2023-02-02T01:51:58.047Z,96.28
2023-02-02T01:52:08.047Z,96.17
2023-02-02T01:52:18.049Z,96.17
2023-02-02T01:52:28.053Z,96.17
2023-02-02T01:52:38.050Z,96.17
2023-02-02T01:52:48.050Z,96.07
2023-02-02T01:52:58.057Z,95.97
2023-02-02T01:53:08.052Z,95.86
2023-02-02T01:53:18.053Z,95.34
2023-02-02T01:53:28.055Z,95.13
2023-02-02T01:53:38.055Z,95.03
2023-02-02T01:53:48.061Z,94.82
2023-02-02T01:53:58.071Z,94.82
2023-02-02T01:54:08.061Z,94.92
2023-02-02T01:54:18.057Z,95.03
2023-02-02T01:54:28.060Z,95.13
2023-02-02T01:54:38.059Z,95.03
2023-02-02T01:54:48.061Z,95.23
2023-02-02T01:54:58.056Z,95.55
2023-02-02T01:55:08.062Z,95.76
2023-02-02T01:55:18.066Z,95.86
2023-02-02T01:55:28.061Z,95.86
2023-02-02T01:55:38.065Z,95.86
2023-02-02T01:55:48.085Z,95.44
2023-02-02T01:55:58.063Z,95.34
2023-02-02T01:56:08.075Z,95.44
2023-02-02T01:56:18.075Z,95.55
2023-02-02T01:56:28.068Z,95.65
2023-02-02T01:56:38.071Z,95.44
2023-02-02T01:56:48.069Z,95.34
2023-02-02T01:56:58.070Z,95.23
2023-02-02T01:57:08.068Z,95.44
2023-02-02T01:57:18.075Z,95.44
2023-02-02T01:57:28.078Z,95.65
2023-02-02T01:57:38.066Z,95.86
2023-02-02T01:57:48.072Z,96.07
2023-02-02T01:57:58.069Z,96.17
2023-02-02T01:58:08.081Z,96.28
2023-02-02T01:58:18.069Z,96.38
2023-02-02T01:58:28.075Z,96.49
2023-02-02T01:58:38.080Z,96.49
2023-02-02T01:58:48.076Z,96.49
2023-02-02T01:58:58.077Z,96.59
2023-02-02T01:59:08.079Z,96.59
2023-02-02T01:59:18.075Z,96.38
2023-02-02T01:59:28.077Z,96.28
2023-02-02T01:59:38.079Z,96.28
2023-02-02T01:59:48.087Z,96.28
2023-02-02T01:59:58.065Z,96.28
2023-02-02T02:00:08.071Z,96.38
2023-02-02T02:00:18.073Z,96.38
2023-02-02T02:00:28.090Z,96.38
2023-02-02T02:00:38.103Z,96.38
2023-02-02T02:00:48.090Z,96.38
2023-02-02T02:00:58.121Z,96.28
2023-02-02T02:01:08.117Z,96.17
2023-02-02T02:01:18.123Z,96.17
2023-02-02T02:01:28.106Z,95.97
2023-02-02T02:01:38.178Z,95.86
2023-02-02T02:01:48.078Z,95.86
2023-02-02T02:01:58.090Z,95.86
2023-02-02T02:02:08.146Z,95.86
2023-02-02T02:02:18.123Z,95.76
2023-02-02T02:02:28.110Z,95.76
2023-02-02T02:02:38.124Z,95.86
2023-02-02T02:02:48.148Z,96.07
2023-02-02T02:02:58.084Z,96.07
2023-02-02T02:03:08.082Z,96.17
2023-02-02T02:03:18.087Z,96.28
2023-02-02T02:03:28.081Z,96.38
2023-02-02T02:03:38.088Z,96.38
2023-02-02T02:03:48.103Z,96.38
2023-02-02T02:03:58.091Z,96.28
2023-02-02T02:04:08.080Z,96.28
2023-02-02T02:04:18.090Z,96.17
2023-02-02T02:04:28.099Z,96.17
2023-02-02T02:04:38.085Z,96.17
2023-02-02T02:04:48.092Z,96.07
2023-02-02T02:04:58.089Z,95.97
2023-02-02T02:05:08.088Z,95.34
2023-02-02T02:05:18.090Z,95.13
2023-02-02T02:05:28.090Z,95.13
2023-02-02T02:05:38.108Z,95.03
2023-02-02T02:05:48.159Z,94.92
2023-02-02T02:05:58.135Z,94.82
2023-02-02T02:06:08.145Z,94.71
2023-02-02T02:06:18.109Z,94.61
2023-02-02T02:06:28.099Z,94.61
2023-02-02T02:06:38.103Z,94.61
2023-02-02T02:06:48.102Z,94.50
2023-02-02T02:06:58.099Z,94.29
2023-02-02T02:07:08.098Z,94.19
2023-02-02T02:07:18.111Z,94.09
2023-02-02T02:07:28.093Z,94.09
2023-02-02T02:07:38.103Z,93.98
2023-02-02T02:07:48.148Z,93.88
2023-02-02T02:07:58.106Z,93.88
2023-02-02T02:08:08.107Z,93.88
2023-02-02T02:08:18.126Z,93.98
2023-02-02T02:08:28.103Z,93.88
2023-02-02T02:08:38.135Z,93.67
2023-02-02T02:08:48.098Z,93.67